This is the latest recevied weather packets stored in our database for station/object K6HFP. If no packets are shown the sender has not sent any weather packets the latest 10 day(s).
| Time | Temp. | Humidity | Pressure | Rain* | Wind** | Luminosity | Snow |
|---|---|---|---|---|---|---|---|
| 1777912607 | 11.67° C | 87% | 1013.6 hPa | 0 mm | - | 91 W/m² | - |
| 1777912303 | 11.67° C | 86% | 1013.7 hPa | 0 mm | - | 68 W/m² | - |
| 1777911999 | 11.67° C | 86% | 1013.4 hPa | 0 mm | - | 73 W/m² | - |
| 1777911696 | 11.67° C | 85% | 1013.7 hPa | 0 mm | - | 72 W/m² | - |
| 1777911392 | 11.67° C | 86% | 1013.5 hPa | 0 mm | - | 155 W/m² | - |
| 1777911090 | 11.67° C | 86% | 1013.6 hPa | 0 mm | - | 128 W/m² | - |
| 1777910787 | 11.67° C | 86% | 1013.2 hPa | 0 mm | - | 154 W/m² | - |
| 1777910484 | 11.67° C | 87% | 1013.6 hPa | 0 mm | - | 115 W/m² | - |
| 1777910180 | 11.67° C | 86% | 1013.5 hPa | 0 mm | - | 74 W/m² | - |
| 1777909877 | 11.67° C | 85% | 1013.6 hPa | 0 mm | - | 52 W/m² | - |
| 1777909574 | 11.67° C | 85% | 1013.5 hPa | 0 mm | - | 48 W/m² | - |
| 1777909271 | 11.67° C | 85% | 1013.1 hPa | 0 mm | - | 60 W/m² | - |
| 1777908970 | 11.67° C | 85% | 1013.1 hPa | 0 mm | - | 92 W/m² | - |
| 1777908668 | 11.67° C | 84% | 1013 hPa | 0 mm | - | 90 W/m² | - |
| 1777908364 | 11.67° C | 84% | 1013.1 hPa | 0 mm | - | 76 W/m² | - |
| 1777908061 | 11.67° C | 83% | 1013.2 hPa | 0 mm | - | 70 W/m² | - |
| 1777907756 | 11.67° C | 84% | 1013.4 hPa | 0 mm | - | 57 W/m² | - |
| 1777907451 | 11.67° C | 84% | 1013.4 hPa | 0 mm | - | 48 W/m² | - |
| 1777907148 | 11.67° C | 85% | 1013.6 hPa | 0 mm | - | 37 W/m² | - |
| 1777906846 | 11.67° C | 85% | 1013.6 hPa | 0 mm | - | 34 W/m² | - |
| 1777906543 | 11.67° C | 85% | 1013.3 hPa | 0 mm | - | 35 W/m² | - |
| 1777906238 | 11.67° C | 86% | 1013.3 hPa | 0 mm | - | 28 W/m² | - |
| 1777905935 | 11.67° C | 85% | 1013.1 hPa | 0 mm | - | 28 W/m² | - |
| 1777905632 | 11.67° C | 85% | 1013.2 hPa | 0 mm | - | 31 W/m² | - |
| 1777905329 | 11.67° C | 85% | 1012.8 hPa | 0 mm | - | 45 W/m² | - |
* Rain latest hour (hover to see other rain measurements)
** Current wind speed in m/s (hover to see current wind gust speed)